sensor_id;sensor_type;location;lat;lon;timestamp;P1;durP1;ratioP1;P2;durP2;ratioP2
18280;SDS011;9266;51.132;17.062;2024-02-28T00:01:16;87.03;;;43.33;;
18280;SDS011;9266;51.132;17.062;2024-02-28T00:03:43;92.77;;;44.00;;
18280;SDS011;9266;51.132;17.062;2024-02-28T00:06:10;98.17;;;45.77;;
18280;SDS011;9266;51.132;17.062;2024-02-28T00:08:37;90.90;;;43.60;;
18280;SDS011;9266;51.132;17.062;2024-02-28T00:11:04;86.97;;;42.43;;
18280;SDS011;9266;51.132;17.062;2024-02-28T00:13:31;92.87;;;44.60;;
18280;SDS011;9266;51.132;17.062;2024-02-28T00:15:58;86.83;;;41.97;;
18280;SDS011;9266;51.132;17.062;2024-02-28T00:18:26;82.00;;;41.60;;
18280;SDS011;9266;51.132;17.062;2024-02-28T00:20:55;91.93;;;45.27;;
18280;SDS011;9266;51.132;17.062;2024-02-28T00:23:22;86.37;;;41.47;;
18280;SDS011;9266;51.132;17.062;2024-02-28T00:25:49;89.37;;;41.63;;
18280;SDS011;9266;51.132;17.062;2024-02-28T00:28:16;88.67;;;41.87;;
18280;SDS011;9266;51.132;17.062;2024-02-28T00:30:44;92.63;;;42.00;;
18280;SDS011;9266;51.132;17.062;2024-02-28T00:33:11;88.43;;;42.27;;
18280;SDS011;9266;51.132;17.062;2024-02-28T00:35:40;86.20;;;43.07;;
18280;SDS011;9266;51.132;17.062;2024-02-28T00:38:07;84.63;;;43.20;;
18280;SDS011;9266;51.132;17.062;2024-02-28T00:40:34;85.77;;;42.37;;
18280;SDS011;9266;51.132;17.062;2024-02-28T00:43:01;88.43;;;43.33;;
18280;SDS011;9266;51.132;17.062;2024-02-28T00:45:28;88.20;;;43.83;;
18280;SDS011;9266;51.132;17.062;2024-02-28T00:47:55;85.03;;;43.77;;
18280;SDS011;9266;51.132;17.062;2024-02-28T00:50:22;84.37;;;41.23;;
18280;SDS011;9266;51.132;17.062;2024-02-28T00:52:50;89.40;;;44.00;;
18280;SDS011;9266;51.132;17.062;2024-02-28T00:55:17;92.37;;;44.97;;
18280;SDS011;9266;51.132;17.062;2024-02-28T00:57:44;88.70;;;43.43;;
18280;SDS011;9266;51.132;17.062;2024-02-28T01:00:11;89.27;;;42.90;;
18280;SDS011;9266;51.132;17.062;2024-02-28T01:02:39;92.43;;;45.70;;
18280;SDS011;9266;51.132;17.062;2024-02-28T01:05:07;95.27;;;44.90;;
18280;SDS011;9266;51.132;17.062;2024-02-28T01:07:35;94.07;;;43.60;;
18280;SDS011;9266;51.132;17.062;2024-02-28T01:10:03;96.70;;;45.37;;
18280;SDS011;9266;51.132;17.062;2024-02-28T01:12:31;107.97;;;48.50;;
18280;SDS011;9266;51.132;17.062;2024-02-28T01:14:58;114.23;;;48.07;;
18280;SDS011;9266;51.132;17.062;2024-02-28T01:17:25;104.60;;;47.93;;
18280;SDS011;9266;51.132;17.062;2024-02-28T01:19:52;110.97;;;48.83;;
18280;SDS011;9266;51.132;17.062;2024-02-28T01:22:19;119.30;;;49.17;;
18280;SDS011;9266;51.132;17.062;2024-02-28T01:24:46;118.43;;;49.77;;
18280;SDS011;9266;51.132;17.062;2024-02-28T01:27:14;127.37;;;51.63;;
18280;SDS011;9266;51.132;17.062;2024-02-28T01:29:41;141.93;;;53.50;;
18280;SDS011;9266;51.132;17.062;2024-02-28T01:32:08;131.00;;;52.50;;
18280;SDS011;9266;51.132;17.062;2024-02-28T01:34:35;141.20;;;53.37;;
18280;SDS011;9266;51.132;17.062;2024-02-28T01:37:02;141.67;;;56.30;;
18280;SDS011;9266;51.132;17.062;2024-02-28T01:39:29;158.33;;;57.27;;
18280;SDS011;9266;51.132;17.062;2024-02-28T01:41:56;133.17;;;55.13;;
18280;SDS011;9266;51.132;17.062;2024-02-28T01:44:25;125.47;;;51.80;;
18280;SDS011;9266;51.132;17.062;2024-02-28T01:46:52;139.07;;;53.90;;
18280;SDS011;9266;51.132;17.062;2024-02-28T01:49:20;140.90;;;55.57;;
18280;SDS011;9266;51.132;17.062;2024-02-28T01:51:46;134.33;;;54.00;;
18280;SDS011;9266;51.132;17.062;2024-02-28T01:54:14;133.20;;;53.83;;
18280;SDS011;9266;51.132;17.062;2024-02-28T01:56:42;140.07;;;54.73;;
18280;SDS011;9266;51.132;17.062;2024-02-28T01:59:10;145.77;;;56.10;;
18280;SDS011;9266;51.132;17.062;2024-02-28T02:01:38;143.43;;;55.50;;
18280;SDS011;9266;51.132;17.062;2024-02-28T02:04:05;146.87;;;56.50;;
18280;SDS011;9266;51.132;17.062;2024-02-28T02:06:32;144.80;;;56.07;;
18280;SDS011;9266;51.132;17.062;2024-02-28T02:09:03;143.90;;;56.97;;
18280;SDS011;9266;51.132;17.062;2024-02-28T02:11:30;142.80;;;55.07;;
18280;SDS011;9266;51.132;17.062;2024-02-28T02:13:58;144.87;;;57.30;;
18280;SDS011;9266;51.132;17.062;2024-02-28T02:16:25;156.23;;;57.63;;
18280;SDS011;9266;51.132;17.062;2024-02-28T02:18:53;156.03;;;58.07;;
18280;SDS011;9266;51.132;17.062;2024-02-28T02:21:22;151.47;;;58.70;;
18280;SDS011;9266;51.132;17.062;2024-02-28T02:23:52;147.77;;;57.07;;
18280;SDS011;9266;51.132;17.062;2024-02-28T02:26:19;148.43;;;54.87;;
18280;SDS011;9266;51.132;17.062;2024-02-28T02:28:46;154.27;;;57.20;;
18280;SDS011;9266;51.132;17.062;2024-02-28T02:31:13;151.07;;;56.63;;
18280;SDS011;9266;51.132;17.062;2024-02-28T02:33:40;175.73;;;60.57;;
18280;SDS011;9266;51.132;17.062;2024-02-28T02:36:07;144.60;;;54.93;;
18280;SDS011;9266;51.132;17.062;2024-02-28T02:38:34;177.13;;;59.37;;
18280;SDS011;9266;51.132;17.062;2024-02-28T02:41:03;159.90;;;58.07;;
18280;SDS011;9266;51.132;17.062;2024-02-28T02:43:29;158.97;;;56.43;;
18280;SDS011;9266;51.132;17.062;2024-02-28T02:45:56;164.40;;;57.43;;
18280;SDS011;9266;51.132;17.062;2024-02-28T02:48:23;164.13;;;59.77;;
18280;SDS011;9266;51.132;17.062;2024-02-28T02:50:50;191.43;;;62.27;;
18280;SDS011;9266;51.132;17.062;2024-02-28T02:53:17;174.67;;;59.63;;
18280;SDS011;9266;51.132;17.062;2024-02-28T02:55:45;169.23;;;60.73;;
18280;SDS011;9266;51.132;17.062;2024-02-28T02:58:13;174.70;;;60.97;;
18280;SDS011;9266;51.132;17.062;2024-02-28T03:00:41;170.43;;;59.03;;
18280;SDS011;9266;51.132;17.062;2024-02-28T03:03:08;197.10;;;63.70;;
18280;SDS011;9266;51.132;17.062;2024-02-28T03:05:35;172.53;;;59.50;;
18280;SDS011;9266;51.132;17.062;2024-02-28T03:08:02;175.37;;;58.83;;
18280;SDS011;9266;51.132;17.062;2024-02-28T03:10:29;172.03;;;60.97;;
18280;SDS011;9266;51.132;17.062;2024-02-28T03:12:56;189.80;;;60.70;;
18280;SDS011;9266;51.132;17.062;2024-02-28T03:15:24;198.27;;;65.30;;
18280;SDS011;9266;51.132;17.062;2024-02-28T03:17:51;192.40;;;61.33;;
18280;SDS011;9266;51.132;17.062;2024-02-28T03:20:18;186.27;;;61.30;;
18280;SDS011;9266;51.132;17.062;2024-02-28T03:22:46;177.13;;;60.67;;
18280;SDS011;9266;51.132;17.062;2024-02-28T03:25:13;231.23;;;67.23;;
18280;SDS011;9266;51.132;17.062;2024-02-28T03:27:40;182.57;;;62.07;;
18280;SDS011;9266;51.132;17.062;2024-02-28T03:30:08;177.37;;;61.33;;
18280;SDS011;9266;51.132;17.062;2024-02-28T03:32:36;193.40;;;62.23;;
18280;SDS011;9266;51.132;17.062;2024-02-28T03:35:03;168.30;;;58.80;;
18280;SDS011;9266;51.132;17.062;2024-02-28T03:37:33;192.83;;;60.73;;
18280;SDS011;9266;51.132;17.062;2024-02-28T03:40:00;186.70;;;63.13;;
18280;SDS011;9266;51.132;17.062;2024-02-28T03:42:27;196.20;;;62.20;;
18280;SDS011;9266;51.132;17.062;2024-02-28T03:44:54;171.00;;;60.13;;
18280;SDS011;9266;51.132;17.062;2024-02-28T03:47:21;194.43;;;62.50;;
18280;SDS011;9266;51.132;17.062;2024-02-28T03:49:50;182.87;;;60.20;;
18280;SDS011;9266;51.132;17.062;2024-02-28T03:52:17;175.10;;;59.20;;
18280;SDS011;9266;51.132;17.062;2024-02-28T03:54:44;173.63;;;59.90;;
18280;SDS011;9266;51.132;17.062;2024-02-28T03:57:11;183.37;;;62.63;;
18280;SDS011;9266;51.132;17.062;2024-02-28T03:59:40;172.73;;;61.17;;
18280;SDS011;9266;51.132;17.062;2024-02-28T04:02:07;180.57;;;61.23;;
18280;SDS011;9266;51.132;17.062;2024-02-28T04:04:34;188.90;;;61.93;;
18280;SDS011;9266;51.132;17.062;2024-02-28T04:07:02;179.57;;;61.50;;
18280;SDS011;9266;51.132;17.062;2024-02-28T04:09:29;174.20;;;58.23;;
18280;SDS011;9266;51.132;17.062;2024-02-28T04:11:56;179.17;;;59.50;;
18280;SDS011;9266;51.132;17.062;2024-02-28T04:14:23;177.50;;;56.77;;
18280;SDS011;9266;51.132;17.062;2024-02-28T04:16:50;176.13;;;56.93;;
18280;SDS011;9266;51.132;17.062;2024-02-28T04:19:17;167.13;;;57.73;;
18280;SDS011;9266;51.132;17.062;2024-02-28T04:21:44;174.37;;;58.17;;
18280;SDS011;9266;51.132;17.062;2024-02-28T04:24:12;150.17;;;54.53;;
18280;SDS011;9266;51.132;17.062;2024-02-28T04:26:39;161.20;;;55.73;;
18280;SDS011;9266;51.132;17.062;2024-02-28T04:29:06;153.77;;;55.33;;
18280;SDS011;9266;51.132;17.062;2024-02-28T04:31:38;169.07;;;55.10;;
18280;SDS011;9266;51.132;17.062;2024-02-28T04:34:05;174.63;;;56.83;;
18280;SDS011;9266;51.132;17.062;2024-02-28T04:36:32;184.03;;;58.77;;
18280;SDS011;9266;51.132;17.062;2024-02-28T04:38:59;185.97;;;60.50;;
18280;SDS011;9266;51.132;17.062;2024-02-28T04:41:30;195.10;;;57.40;;
18280;SDS011;9266;51.132;17.062;2024-02-28T04:43:58;174.13;;;57.40;;
18280;SDS011;9266;51.132;17.062;2024-02-28T04:46:25;208.73;;;61.40;;
18280;SDS011;9266;51.132;17.062;2024-02-28T04:48:52;180.27;;;56.53;;
18280;SDS011;9266;51.132;17.062;2024-02-28T04:51:18;186.03;;;57.40;;
18280;SDS011;9266;51.132;17.062;2024-02-28T04:53:46;158.47;;;53.37;;
18280;SDS011;9266;51.132;17.062;2024-02-28T04:56:13;166.80;;;55.97;;
18280;SDS011;9266;51.132;17.062;2024-02-28T04:58:41;152.43;;;52.43;;
18280;SDS011;9266;51.132;17.062;2024-02-28T05:01:08;156.90;;;54.13;;
18280;SDS011;9266;51.132;17.062;2024-02-28T05:03:35;159.40;;;54.77;;
18280;SDS011;9266;51.132;17.062;2024-02-28T05:06:02;151.17;;;53.03;;
18280;SDS011;9266;51.132;17.062;2024-02-28T05:08:29;156.80;;;53.13;;
18280;SDS011;9266;51.132;17.062;2024-02-28T05:10:56;158.63;;;53.07;;
18280;SDS011;9266;51.132;17.062;2024-02-28T05:13:23;158.23;;;55.27;;
18280;SDS011;9266;51.132;17.062;2024-02-28T05:15:52;171.00;;;55.07;;
18280;SDS011;9266;51.132;17.062;2024-02-28T05:18:18;161.87;;;55.30;;
18280;SDS011;9266;51.132;17.062;2024-02-28T05:20:46;152.57;;;53.37;;
18280;SDS011;9266;51.132;17.062;2024-02-28T05:23:12;161.97;;;53.40;;
18280;SDS011;9266;51.132;17.062;2024-02-28T05:25:40;141.57;;;50.07;;
18280;SDS011;9266;51.132;17.062;2024-02-28T05:28:07;148.17;;;50.97;;
18280;SDS011;9266;51.132;17.062;2024-02-28T05:30:34;144.47;;;50.90;;
18280;SDS011;9266;51.132;17.062;2024-02-28T05:33:02;143.57;;;52.33;;
18280;SDS011;9266;51.132;17.062;2024-02-28T05:35:29;147.97;;;50.83;;
18280;SDS011;9266;51.132;17.062;2024-02-28T05:37:56;132.40;;;50.63;;
18280;SDS011;9266;51.132;17.062;2024-02-28T05:40:23;142.47;;;49.93;;
18280;SDS011;9266;51.132;17.062;2024-02-28T05:42:50;136.57;;;50.70;;
18280;SDS011;9266;51.132;17.062;2024-02-28T05:45:18;137.77;;;49.40;;
18280;SDS011;9266;51.132;17.062;2024-02-28T05:47:45;129.73;;;47.80;;
18280;SDS011;9266;51.132;17.062;2024-02-28T05:50:13;133.20;;;47.53;;
18280;SDS011;9266;51.132;17.062;2024-02-28T05:52:41;138.07;;;47.20;;
18280;SDS011;9266;51.132;17.062;2024-02-28T05:55:08;113.33;;;45.77;;
18280;SDS011;9266;51.132;17.062;2024-02-28T05:57:35;114.60;;;45.30;;
18280;SDS011;9266;51.132;17.062;2024-02-28T06:00:02;114.57;;;45.50;;
18280;SDS011;9266;51.132;17.062;2024-02-28T06:02:35;97.40;;;41.00;;
18280;SDS011;9266;51.132;17.062;2024-02-28T06:05:02;114.57;;;44.77;;
18280;SDS011;9266;51.132;17.062;2024-02-28T06:07:31;97.53;;;41.57;;
18280;SDS011;9266;51.132;17.062;2024-02-28T06:09:58;105.33;;;42.00;;
18280;SDS011;9266;51.132;17.062;2024-02-28T06:12:25;95.30;;;42.67;;
18280;SDS011;9266;51.132;17.062;2024-02-28T06:14:52;103.43;;;45.27;;
18280;SDS011;9266;51.132;17.062;2024-02-28T06:17:20;111.93;;;47.60;;
18280;SDS011;9266;51.132;17.062;2024-02-28T06:19:47;112.20;;;47.30;;
18280;SDS011;9266;51.132;17.062;2024-02-28T06:22:14;110.90;;;50.10;;
18280;SDS011;9266;51.132;17.062;2024-02-28T06:24:44;116.60;;;46.87;;
18280;SDS011;9266;51.132;17.062;2024-02-28T06:27:11;100.83;;;44.63;;
18280;SDS011;9266;51.132;17.062;2024-02-28T06:29:38;103.77;;;47.27;;
18280;SDS011;9266;51.132;17.062;2024-02-28T06:32:05;104.77;;;44.83;;
18280;SDS011;9266;51.132;17.062;2024-02-28T06:34:33;100.90;;;44.87;;
18280;SDS011;9266;51.132;17.062;2024-02-28T06:37:00;104.77;;;47.57;;
18280;SDS011;9266;51.132;17.062;2024-02-28T06:39:27;112.77;;;47.60;;
18280;SDS011;9266;51.132;17.062;2024-02-28T06:41:55;93.07;;;43.83;;
18280;SDS011;9266;51.132;17.062;2024-02-28T06:44:22;104.90;;;49.17;;
18280;SDS011;9266;51.132;17.062;2024-02-28T06:46:50;86.07;;;42.57;;
18280;SDS011;9266;51.132;17.062;2024-02-28T06:49:17;94.30;;;44.30;;
18280;SDS011;9266;51.132;17.062;2024-02-28T06:51:44;83.50;;;41.23;;
18280;SDS011;9266;51.132;17.062;2024-02-28T06:54:11;87.20;;;42.57;;
18280;SDS011;9266;51.132;17.062;2024-02-28T06:56:38;79.70;;;38.97;;
18280;SDS011;9266;51.132;17.062;2024-02-28T06:59:06;76.13;;;34.20;;
18280;SDS011;9266;51.132;17.062;2024-02-28T07:01:33;68.27;;;35.20;;
18280;SDS011;9266;51.132;17.062;2024-02-28T07:04:00;70.00;;;35.83;;
18280;SDS011;9266;51.132;17.062;2024-02-28T07:06:28;65.03;;;35.47;;
18280;SDS011;9266;51.132;17.062;2024-02-28T07:08:55;65.47;;;36.03;;
18280;SDS011;9266;51.132;17.062;2024-02-28T07:11:22;62.43;;;34.13;;
18280;SDS011;9266;51.132;17.062;2024-02-28T07:13:49;66.97;;;33.93;;
18280;SDS011;9266;51.132;17.062;2024-02-28T07:16:17;60.27;;;33.07;;
18280;SDS011;9266;51.132;17.062;2024-02-28T07:18:44;59.97;;;32.30;;
18280;SDS011;9266;51.132;17.062;2024-02-28T07:21:11;60.13;;;32.33;;
18280;SDS011;9266;51.132;17.062;2024-02-28T07:23:39;60.33;;;33.40;;
18280;SDS011;9266;51.132;17.062;2024-02-28T07:26:08;61.83;;;32.40;;
18280;SDS011;9266;51.132;17.062;2024-02-28T07:28:35;54.20;;;30.90;;
18280;SDS011;9266;51.132;17.062;2024-02-28T07:31:02;56.27;;;30.00;;
18280;SDS011;9266;51.132;17.062;2024-02-28T07:33:30;53.60;;;30.33;;
18280;SDS011;9266;51.132;17.062;2024-02-28T07:35:57;46.77;;;29.13;;
18280;SDS011;9266;51.132;17.062;2024-02-28T07:38:26;45.47;;;29.83;;
18280;SDS011;9266;51.132;17.062;2024-02-28T07:40:53;51.60;;;29.63;;
18280;SDS011;9266;51.132;17.062;2024-02-28T07:43:20;50.03;;;28.27;;
18280;SDS011;9266;51.132;17.062;2024-02-28T07:45:47;49.20;;;29.17;;
18280;SDS011;9266;51.132;17.062;2024-02-28T07:48:14;40.80;;;26.20;;
18280;SDS011;9266;51.132;17.062;2024-02-28T07:50:44;47.73;;;26.37;;
18280;SDS011;9266;51.132;17.062;2024-02-28T07:53:11;51.03;;;28.27;;
18280;SDS011;9266;51.132;17.062;2024-02-28T07:55:38;44.43;;;27.10;;
18280;SDS011;9266;51.132;17.062;2024-02-28T07:58:05;42.13;;;26.80;;
18280;SDS011;9266;51.132;17.062;2024-02-28T08:00:32;42.33;;;26.00;;
18280;SDS011;9266;51.132;17.062;2024-02-28T08:02:59;40.53;;;25.57;;
18280;SDS011;9266;51.132;17.062;2024-02-28T08:05:26;43.87;;;27.70;;
18280;SDS011;9266;51.132;17.062;2024-02-28T08:07:55;39.63;;;25.13;;
18280;SDS011;9266;51.132;17.062;2024-02-28T08:10:23;46.97;;;26.70;;
18280;SDS011;9266;51.132;17.062;2024-02-28T08:12:50;36.13;;;24.43;;
18280;SDS011;9266;51.132;17.062;2024-02-28T08:15:17;38.17;;;24.73;;
18280;SDS011;9266;51.132;17.062;2024-02-28T08:17:44;38.63;;;24.77;;
18280;SDS011;9266;51.132;17.062;2024-02-28T08:20:11;37.03;;;23.53;;
18280;SDS011;9266;51.132;17.062;2024-02-28T08:22:38;35.40;;;23.10;;
18280;SDS011;9266;51.132;17.062;2024-02-28T08:25:07;36.07;;;22.70;;
18280;SDS011;9266;51.132;17.062;2024-02-28T08:27:36;33.87;;;20.43;;
18280;SDS011;9266;51.132;17.062;2024-02-28T08:30:04;31.53;;;21.93;;
18280;SDS011;9266;51.132;17.062;2024-02-28T08:32:32;30.70;;;20.77;;
18280;SDS011;9266;51.132;17.062;2024-02-28T08:34:59;31.07;;;21.37;;
18280;SDS011;9266;51.132;17.062;2024-02-28T08:37:26;31.60;;;21.27;;
18280;SDS011;9266;51.132;17.062;2024-02-28T08:39:54;31.00;;;20.70;;
18280;SDS011;9266;51.132;17.062;2024-02-28T08:42:24;26.57;;;18.60;;
18280;SDS011;9266;51.132;17.062;2024-02-28T08:44:51;27.83;;;19.33;;
18280;SDS011;9266;51.132;17.062;2024-02-28T08:47:22;29.13;;;19.83;;
18280;SDS011;9266;51.132;17.062;2024-02-28T08:49:50;28.73;;;20.00;;
18280;SDS011;9266;51.132;17.062;2024-02-28T08:52:17;29.00;;;19.77;;
18280;SDS011;9266;51.132;17.062;2024-02-28T08:54:44;32.07;;;20.10;;
18280;SDS011;9266;51.132;17.062;2024-02-28T08:57:11;28.30;;;18.00;;
18280;SDS011;9266;51.132;17.062;2024-02-28T08:59:39;27.43;;;17.67;;
18280;SDS011;9266;51.132;17.062;2024-02-28T09:02:07;26.83;;;17.90;;
18280;SDS011;9266;51.132;17.062;2024-02-28T09:04:36;25.17;;;17.13;;
18280;SDS011;9266;51.132;17.062;2024-02-28T09:07:03;26.00;;;18.20;;
18280;SDS011;9266;51.132;17.062;2024-02-28T09:09:30;23.83;;;17.00;;
18280;SDS011;9266;51.132;17.062;2024-02-28T09:12:01;26.97;;;17.57;;
18280;SDS011;9266;51.132;17.062;2024-02-28T09:14:29;22.17;;;16.07;;
18280;SDS011;9266;51.132;17.062;2024-02-28T09:16:57;21.00;;;14.87;;
18280;SDS011;9266;51.132;17.062;2024-02-28T09:19:29;22.40;;;15.43;;
18280;SDS011;9266;51.132;17.062;2024-02-28T09:21:56;21.50;;;15.93;;
18280;SDS011;9266;51.132;17.062;2024-02-28T09:24:23;26.00;;;15.93;;
18280;SDS011;9266;51.132;17.062;2024-02-28T09:26:50;25.47;;;16.53;;
18280;SDS011;9266;51.132;17.062;2024-02-28T09:29:17;25.90;;;17.43;;
18280;SDS011;9266;51.132;17.062;2024-02-28T09:31:44;27.40;;;17.83;;
18280;SDS011;9266;51.132;17.062;2024-02-28T09:34:13;24.90;;;17.50;;
18280;SDS011;9266;51.132;17.062;2024-02-28T09:36:40;24.10;;;17.30;;
18280;SDS011;9266;51.132;17.062;2024-02-28T09:39:10;24.40;;;17.20;;
18280;SDS011;9266;51.132;17.062;2024-02-28T09:41:37;21.43;;;14.93;;
18280;SDS011;9266;51.132;17.062;2024-02-28T09:44:05;21.03;;;15.03;;
18280;SDS011;9266;51.132;17.062;2024-02-28T09:46:33;21.63;;;15.70;;
18280;SDS011;9266;51.132;17.062;2024-02-28T09:49:01;22.43;;;15.13;;
18280;SDS011;9266;51.132;17.062;2024-02-28T09:51:31;22.53;;;15.80;;
18280;SDS011;9266;51.132;17.062;2024-02-28T09:54:00;20.23;;;14.80;;
18280;SDS011;9266;51.132;17.062;2024-02-28T09:56:27;19.57;;;14.80;;
18280;SDS011;9266;51.132;17.062;2024-02-28T09:58:55;19.20;;;14.27;;
18280;SDS011;9266;51.132;17.062;2024-02-28T10:01:22;19.93;;;15.17;;
18280;SDS011;9266;51.132;17.062;2024-02-28T10:03:50;23.53;;;16.43;;
18280;SDS011;9266;51.132;17.062;2024-02-28T10:06:18;23.17;;;16.47;;
18280;SDS011;9266;51.132;17.062;2024-02-28T10:08:47;22.37;;;15.47;;
18280;SDS011;9266;51.132;17.062;2024-02-28T10:11:17;22.27;;;16.87;;
18280;SDS011;9266;51.132;17.062;2024-02-28T10:13:43;23.03;;;16.03;;
18280;SDS011;9266;51.132;17.062;2024-02-28T10:16:10;20.20;;;14.77;;
18280;SDS011;9266;51.132;17.062;2024-02-28T10:18:37;21.00;;;13.80;;
18280;SDS011;9266;51.132;17.062;2024-02-28T10:21:04;18.83;;;13.83;;
18280;SDS011;9266;51.132;17.062;2024-02-28T10:23:31;18.73;;;13.40;;
18280;SDS011;9266;51.132;17.062;2024-02-28T10:26:00;18.73;;;14.03;;
18280;SDS011;9266;51.132;17.062;2024-02-28T10:28:27;18.53;;;13.90;;
18280;SDS011;9266;51.132;17.062;2024-02-28T10:30:55;18.07;;;13.80;;
18280;SDS011;9266;51.132;17.062;2024-02-28T10:33:25;19.33;;;14.17;;
18280;SDS011;9266;51.132;17.062;2024-02-28T10:35:54;19.60;;;14.20;;
18280;SDS011;9266;51.132;17.062;2024-02-28T10:38:22;20.80;;;13.57;;
18280;SDS011;9266;51.132;17.062;2024-02-28T10:40:51;18.93;;;14.30;;
18280;SDS011;9266;51.132;17.062;2024-02-28T10:43:21;21.30;;;14.40;;
18280;SDS011;9266;51.132;17.062;2024-02-28T10:45:48;18.27;;;15.03;;
18280;SDS011;9266;51.132;17.062;2024-02-28T10:48:17;15.30;;;12.73;;
18280;SDS011;9266;51.132;17.062;2024-02-28T10:50:46;16.20;;;12.93;;
18280;SDS011;9266;51.132;17.062;2024-02-28T10:53:14;15.47;;;12.63;;
18280;SDS011;9266;51.132;17.062;2024-02-28T10:55:42;16.27;;;12.27;;
18280;SDS011;9266;51.132;17.062;2024-02-28T10:58:12;13.73;;;11.27;;
18280;SDS011;9266;51.132;17.062;2024-02-28T11:00:42;16.73;;;13.10;;
18280;SDS011;9266;51.132;17.062;2024-02-28T11:03:11;18.87;;;12.80;;
18280;SDS011;9266;51.132;17.062;2024-02-28T11:05:40;16.00;;;13.50;;
18280;SDS011;9266;51.132;17.062;2024-02-28T11:08:11;16.37;;;12.10;;
18280;SDS011;9266;51.132;17.062;2024-02-28T11:10:47;13.97;;;11.47;;
18280;SDS011;9266;51.132;17.062;2024-02-28T11:13:23;15.90;;;11.47;;
18280;SDS011;9266;51.132;17.062;2024-02-28T11:15:52;15.00;;;11.43;;
18280;SDS011;9266;51.132;17.062;2024-02-28T11:18:21;14.20;;;11.77;;
18280;SDS011;9266;51.132;17.062;2024-02-28T11:20:48;14.30;;;11.30;;
18280;SDS011;9266;51.132;17.062;2024-02-28T11:23:17;16.80;;;12.17;;
18280;SDS011;9266;51.132;17.062;2024-02-28T11:25:44;14.93;;;11.47;;
18280;SDS011;9266;51.132;17.062;2024-02-28T11:28:11;13.77;;;11.27;;
18280;SDS011;9266;51.132;17.062;2024-02-28T11:30:38;13.50;;;10.97;;
18280;SDS011;9266;51.132;17.062;2024-02-28T11:33:08;14.87;;;11.57;;
18280;SDS011;9266;51.132;17.062;2024-02-28T11:35:35;15.87;;;11.37;;
18280;SDS011;9266;51.132;17.062;2024-02-28T11:38:02;14.20;;;11.53;;
18280;SDS011;9266;51.132;17.062;2024-02-28T11:40:32;15.73;;;12.40;;
18280;SDS011;9266;51.132;17.062;2024-02-28T11:42:59;17.10;;;12.70;;
18280;SDS011;9266;51.132;17.062;2024-02-28T11:45:28;18.87;;;13.77;;
18280;SDS011;9266;51.132;17.062;2024-02-28T11:47:57;16.60;;;13.03;;
18280;SDS011;9266;51.132;17.062;2024-02-28T11:50:25;15.57;;;12.17;;
18280;SDS011;9266;51.132;17.062;2024-02-28T11:52:55;16.53;;;12.97;;
18280;SDS011;9266;51.132;17.062;2024-02-28T11:55:24;18.53;;;13.97;;
18280;SDS011;9266;51.132;17.062;2024-02-28T11:57:51;19.17;;;14.00;;
18280;SDS011;9266;51.132;17.062;2024-02-28T12:00:18;19.80;;;14.60;;
18280;SDS011;9266;51.132;17.062;2024-02-28T12:02:45;18.57;;;14.27;;
18280;SDS011;9266;51.132;17.062;2024-02-28T12:05:12;17.63;;;14.03;;
18280;SDS011;9266;51.132;17.062;2024-02-28T12:07:40;20.43;;;14.20;;
18280;SDS011;9266;51.132;17.062;2024-02-28T12:10:08;18.90;;;14.60;;
18280;SDS011;9266;51.132;17.062;2024-02-28T12:12:36;15.80;;;12.33;;
18280;SDS011;9266;51.132;17.062;2024-02-28T12:15:03;17.33;;;13.47;;
18280;SDS011;9266;51.132;17.062;2024-02-28T12:17:32;17.40;;;12.90;;
18280;SDS011;9266;51.132;17.062;2024-02-28T12:20:03;15.83;;;12.37;;
18280;SDS011;9266;51.132;17.062;2024-02-28T12:22:31;13.87;;;11.73;;
18280;SDS011;9266;51.132;17.062;2024-02-28T12:25:00;13.93;;;10.40;;
18280;SDS011;9266;51.132;17.062;2024-02-28T12:27:29;13.27;;;11.00;;
18280;SDS011;9266;51.132;17.062;2024-02-28T12:29:57;12.83;;;10.50;;
18280;SDS011;9266;51.132;17.062;2024-02-28T12:32:24;14.27;;;10.63;;
18280;SDS011;9266;51.132;17.062;2024-02-28T12:34:51;16.60;;;11.97;;
18280;SDS011;9266;51.132;17.062;2024-02-28T12:37:18;14.40;;;12.27;;
18280;SDS011;9266;51.132;17.062;2024-02-28T12:39:45;16.00;;;12.23;;
18280;SDS011;9266;51.132;17.062;2024-02-28T12:42:14;16.47;;;13.10;;
18280;SDS011;9266;51.132;17.062;2024-02-28T12:44:41;16.80;;;12.87;;
18280;SDS011;9266;51.132;17.062;2024-02-28T12:47:10;15.97;;;12.70;;
18280;SDS011;9266;51.132;17.062;2024-02-28T12:49:37;19.80;;;14.47;;
18280;SDS011;9266;51.132;17.062;2024-02-28T12:52:04;20.67;;;13.83;;
18280;SDS011;9266;51.132;17.062;2024-02-28T12:54:32;16.67;;;12.70;;
18280;SDS011;9266;51.132;17.062;2024-02-28T12:57:00;19.07;;;13.47;;
18280;SDS011;9266;51.132;17.062;2024-02-28T12:59:31;18.90;;;13.50;;
18280;SDS011;9266;51.132;17.062;2024-02-28T13:01:59;18.63;;;13.83;;
18280;SDS011;9266;51.132;17.062;2024-02-28T13:04:26;22.00;;;14.87;;
18280;SDS011;9266;51.132;17.062;2024-02-28T13:06:54;19.10;;;14.07;;
18280;SDS011;9266;51.132;17.062;2024-02-28T13:09:21;22.93;;;15.57;;
18280;SDS011;9266;51.132;17.062;2024-02-28T13:11:48;20.60;;;14.87;;
18280;SDS011;9266;51.132;17.062;2024-02-28T13:14:15;24.60;;;15.10;;
18280;SDS011;9266;51.132;17.062;2024-02-28T13:16:44;24.10;;;16.00;;
18280;SDS011;9266;51.132;17.062;2024-02-28T13:19:11;25.73;;;16.20;;
18280;SDS011;9266;51.132;17.062;2024-02-28T13:21:39;24.67;;;17.13;;
18280;SDS011;9266;51.132;17.062;2024-02-28T13:24:06;25.67;;;15.93;;
18280;SDS011;9266;51.132;17.062;2024-02-28T13:26:33;27.47;;;17.40;;
18280;SDS011;9266;51.132;17.062;2024-02-28T13:29:01;25.17;;;17.77;;
18280;SDS011;9266;51.132;17.062;2024-02-28T13:31:28;30.93;;;18.30;;
18280;SDS011;9266;51.132;17.062;2024-02-28T13:33:56;33.07;;;19.17;;
18280;SDS011;9266;51.132;17.062;2024-02-28T13:36:23;28.97;;;18.17;;
18280;SDS011;9266;51.132;17.062;2024-02-28T13:38:50;30.63;;;18.83;;
18280;SDS011;9266;51.132;17.062;2024-02-28T13:41:17;36.17;;;20.97;;
18280;SDS011;9266;51.132;17.062;2024-02-28T13:43:44;31.37;;;19.00;;
18280;SDS011;9266;51.132;17.062;2024-02-28T13:46:11;32.43;;;19.33;;
18280;SDS011;9266;51.132;17.062;2024-02-28T13:48:39;29.83;;;18.37;;
18280;SDS011;9266;51.132;17.062;2024-02-28T13:51:07;32.40;;;18.80;;
18280;SDS011;9266;51.132;17.062;2024-02-28T13:53:34;31.30;;;18.57;;
18280;SDS011;9266;51.132;17.062;2024-02-28T13:56:02;30.90;;;18.70;;
18280;SDS011;9266;51.132;17.062;2024-02-28T13:58:30;36.37;;;20.40;;
18280;SDS011;9266;51.132;17.062;2024-02-28T14:00:57;35.87;;;20.60;;
18280;SDS011;9266;51.132;17.062;2024-02-28T14:03:23;34.97;;;20.63;;
18280;SDS011;9266;51.132;17.062;2024-02-28T14:05:50;39.17;;;22.07;;
18280;SDS011;9266;51.132;17.062;2024-02-28T14:08:19;34.40;;;20.57;;
18280;SDS011;9266;51.132;17.062;2024-02-28T14:10:46;41.50;;;22.93;;
18280;SDS011;9266;51.132;17.062;2024-02-28T14:13:13;37.17;;;23.33;;
18280;SDS011;9266;51.132;17.062;2024-02-28T14:15:43;38.90;;;20.83;;
18280;SDS011;9266;51.132;17.062;2024-02-28T14:18:10;40.60;;;22.77;;